Time;durP1;ratioP1;P1;durP2;ratioP2;P2;SDS_P1;SDS_P2;PMS_P1;PMS_P2;Temp;Humidity;BMP_temperature;BMP_pressure;BME280_temperature;BME280_humidity;BME280_pressure;Samples;Min_cycle;Max_cycle;Signal;HPM_P1;HPM_P2
2022/07/08 00:01:14;;;;;;;4.55;0.73;;;15.00;99.90;;;;;;4987672;28;20164;-46
2022/07/08 00:03:40;;;;;;;5.10;0.60;;;15.00;99.90;;;;;;4987011;28;20137;-44
2022/07/08 00:06:06;;;;;;;5.07;0.75;;;14.90;99.90;;;;;;4984993;28;20049;-47
2022/07/08 00:08:32;;;;;;;3.45;0.55;;;14.90;99.90;;;;;;4984300;28;20030;-46
2022/07/08 00:10:59;;;;;;;4.35;0.60;;;14.90;99.90;;;;;;4987762;28;20396;-49
2022/07/08 00:13:24;;;;;;;7.60;0.73;;;14.80;99.90;;;;;;4984457;28;20042;-47
2022/07/08 00:15:50;;;;;;;7.55;0.80;;;14.70;99.90;;;;;;4988256;28;20601;-45
2022/07/08 00:18:16;;;;;;;5.78;0.70;;;14.70;99.90;;;;;;4981784;28;20133;-46
2022/07/08 00:20:42;;;;;;;1.77;0.55;;;14.60;99.90;;;;;;4985142;28;20484;-45
2022/07/08 00:23:08;;;;;;;6.63;0.73;;;14.60;99.90;;;;;;4983672;28;20488;-45
2022/07/08 00:25:34;;;;;;;2.10;0.55;;;14.60;99.90;;;;;;4980837;28;20573;-44
2022/07/08 00:28:00;;;;;;;2.65;0.60;;;14.50;99.90;;;;;;4985436;28;20042;-45
2022/07/08 00:30:25;;;;;;;5.28;0.52;;;14.40;99.90;;;;;;4984541;28;20065;-46
2022/07/08 00:32:51;;;;;;;4.70;0.40;;;14.40;99.90;;;;;;4980490;28;20395;-48
2022/07/08 00:35:17;;;;;;;8.13;0.80;;;14.40;99.90;;;;;;4986134;28;20503;-44
2022/07/08 00:37:42;;;;;;;8.18;1.05;;;14.30;99.90;;;;;;4979131;28;20057;-44
2022/07/08 00:40:09;;;;;;;5.00;0.50;;;14.30;99.90;;;;;;4988269;28;20045;-48
2022/07/08 00:42:34;;;;;;;3.17;0.40;;;14.30;99.90;;;;;;4983614;28;20061;-45
2022/07/08 00:45:00;;;;;;;7.68;0.52;;;14.30;99.90;;;;;;4985510;28;20030;-43
2022/07/08 00:47:26;;;;;;;4.43;0.63;;;14.20;99.90;;;;;;4987919;28;20121;-44
2022/07/08 00:49:51;;;;;;;7.72;0.77;;;14.30;99.90;;;;;;4987072;28;20103;-44
2022/07/08 00:52:17;;;;;;;1.63;0.50;;;14.30;99.90;;;;;;4981205;28;20061;-46
2022/07/08 00:54:43;;;;;;;1.88;0.73;;;14.30;99.90;;;;;;4985762;28;20035;-48
2022/07/08 00:57:09;;;;;;;4.00;0.65;;;14.30;99.90;;;;;;4981258;28;20491;-44
2022/07/08 00:59:36;;;;;;;2.13;0.80;;;14.30;99.90;;;;;;4985779;28;20034;-44
2022/07/08 01:02:01;;;;;;;5.80;0.80;;;14.30;99.90;;;;;;4984567;28;20046;-44
2022/07/08 01:04:27;;;;;;;5.55;0.90;;;14.30;99.90;;;;;;4977398;28;20049;-44
2022/07/08 01:06:53;;;;;;;5.80;0.85;;;14.30;99.90;;;;;;4984854;28;20073;-47
2022/07/08 01:09:18;;;;;;;4.97;0.70;;;14.30;99.90;;;;;;4984420;28;20034;-44
2022/07/08 01:11:45;;;;;;;7.18;0.90;;;14.30;99.90;;;;;;4984344;28;20030;-44
2022/07/08 01:14:12;;;;;;;4.90;0.85;;;14.30;99.90;;;;;;4982062;28;20049;-43
2022/07/08 01:16:38;;;;;;;2.72;0.60;;;14.30;99.90;;;;;;4984016;28;20132;-42
2022/07/08 01:19:03;;;;;;;3.85;1.10;;;14.40;99.90;;;;;;4984125;28;20148;-48
2022/07/08 01:21:29;;;;;;;4.13;0.60;;;14.40;99.90;;;;;;4987098;28;20049;-45
2022/07/08 01:23:55;;;;;;;7.03;1.00;;;14.40;99.90;;;;;;4986386;28;20057;-43
2022/07/08 01:26:21;;;;;;;3.70;0.80;;;14.40;99.90;;;;;;4983698;28;20057;-46
2022/07/08 01:28:46;;;;;;;6.25;0.65;;;14.40;99.90;;;;;;4985850;28;20065;-47
2022/07/08 01:31:12;;;;;;;4.35;0.90;;;14.40;99.90;;;;;;4985204;28;20038;-49
2022/07/08 01:33:38;;;;;;;5.63;0.95;;;14.40;99.90;;;;;;4985264;28;20053;-45
2022/07/08 01:36:05;;;;;;;9.07;0.98;;;14.40;99.90;;;;;;4983981;28;20128;-44
2022/07/08 01:38:31;;;;;;;11.18;0.70;;;14.40;99.90;;;;;;4985814;28;20383;-44
2022/07/08 01:40:56;;;;;;;5.65;0.70;;;14.40;99.90;;;;;;4985282;28;20050;-44
2022/07/08 01:43:22;;;;;;;8.18;0.80;;;14.40;99.90;;;;;;4981125;28;20046;-45
2022/07/08 01:45:48;;;;;;;3.53;0.60;;;14.40;99.90;;;;;;4984601;28;20041;-45
2022/07/08 01:48:14;;;;;;;7.80;1.08;;;14.30;99.90;;;;;;4987242;28;20049;-43
2022/07/08 01:50:39;;;;;;;6.10;0.95;;;14.30;99.90;;;;;;4985707;28;20121;-48
2022/07/08 01:53:05;;;;;;;5.78;0.70;;;14.20;99.90;;;;;;4982960;28;20124;-47
2022/07/08 01:55:31;;;;;;;4.55;0.70;;;14.20;99.90;;;;;;4978023;28;20197;-43
2022/07/08 01:57:56;;;;;;;2.95;0.60;;;14.20;99.90;;;;;;4989005;28;20046;-45
2022/07/08 02:00:22;;;;;;;8.57;0.90;;;14.10;99.90;;;;;;4984113;28;20042;-45
2022/07/08 02:02:48;;;;;;;4.88;0.88;;;14.10;99.90;;;;;;4982072;28;20042;-44
2022/07/08 02:05:14;;;;;;;5.32;1.08;;;14.00;99.90;;;;;;4986672;28;20343;-46
2022/07/08 02:07:40;;;;;;;5.07;0.50;;;13.90;99.90;;;;;;4984252;28;20128;-45
2022/07/08 02:10:07;;;;;;;5.18;1.00;;;13.90;99.90;;;;;;4986613;28;20440;-48
2022/07/08 02:12:36;;;;;;;7.80;0.93;;;13.80;99.90;;;;;;4987606;28;20121;-46
2022/07/08 02:15:04;;;;;;;2.50;0.63;;;13.80;99.90;;;;;;4987919;28;20487;-44
2022/07/08 02:17:36;;;;;;;4.30;0.80;;;13.70;99.90;;;;;;4984761;28;20145;-45
2022/07/08 02:20:07;;;;;;;3.65;0.80;;;13.70;99.90;;;;;;4989507;28;20050;-44
2022/07/08 02:22:34;;;;;;;5.80;0.63;;;13.60;99.90;;;;;;4988254;28;20518;-44
2022/07/08 02:25:00;;;;;;;8.30;1.10;;;13.60;99.90;;;;;;4988991;28;20069;-44
2022/07/08 02:27:25;;;;;;;6.18;0.85;;;13.60;99.90;;;;;;4986551;28;20042;-48
2022/07/08 02:29:51;;;;;;;7.32;0.82;;;13.50;99.90;;;;;;4990179;28;20511;-44
2022/07/08 02:32:17;;;;;;;4.72;0.65;;;13.50;99.90;;;;;;4990152;28;20050;-44
2022/07/08 02:34:43;;;;;;;2.40;0.47;;;13.50;99.90;;;;;;4988521;28;20045;-46
2022/07/08 02:37:10;;;;;;;4.80;0.90;;;13.50;99.90;;;;;;4986894;28;20461;-46
2022/07/08 02:39:36;;;;;;;2.80;0.60;;;13.40;99.90;;;;;;4982871;28;20046;-44
2022/07/08 02:42:02;;;;;;;2.78;0.80;;;13.40;99.90;;;;;;4985428;28;20050;-46
2022/07/08 02:44:27;;;;;;;6.70;0.60;;;13.40;99.90;;;;;;4988813;28;20038;-45
2022/07/08 02:46:53;;;;;;;4.97;0.68;;;13.40;99.90;;;;;;4987689;28;20046;-45
2022/07/08 02:49:19;;;;;;;2.95;0.47;;;13.30;99.90;;;;;;4991964;28;20050;-47
2022/07/08 02:51:45;;;;;;;2.65;0.60;;;13.30;99.90;;;;;;4983050;28;20038;-45
2022/07/08 02:54:10;;;;;;;3.83;0.75;;;13.30;99.90;;;;;;4987426;28;20034;-48
2022/07/08 02:56:36;;;;;;;3.78;0.60;;;13.20;99.90;;;;;;4989463;28;20189;-49
2022/07/08 02:59:04;;;;;;;5.05;0.73;;;13.20;99.90;;;;;;4982000;28;20045;-49
2022/07/08 03:01:30;;;;;;;5.35;0.70;;;13.10;99.90;;;;;;4989812;28;20525;-47
2022/07/08 03:03:56;;;;;;;3.28;0.80;;;13.10;99.90;;;;;;4988131;28;20113;-47
2022/07/08 03:06:22;;;;;;;5.38;0.60;;;13.10;99.90;;;;;;4982370;28;20046;-44
2022/07/08 03:08:47;;;;;;;5.25;0.90;;;13.10;99.90;;;;;;4986700;28;20045;-47
2022/07/08 03:11:13;;;;;;;4.05;0.60;;;13.10;99.90;;;;;;4984440;28;20034;-46
2022/07/08 03:13:39;;;;;;;10.27;1.10;;;13.10;99.90;;;;;;4981880;28;20042;-45
2022/07/08 03:16:06;;;;;;;5.47;0.88;;;13.10;99.90;;;;;;4981076;28;20365;-48
2022/07/08 03:18:32;;;;;;;2.25;0.55;;;13.10;99.90;;;;;;4984149;28;20720;-48
2022/07/08 03:20:58;;;;;;;5.43;0.80;;;13.10;99.90;;;;;;4989602;28;20121;-44
2022/07/08 03:23:23;;;;;;;3.35;0.68;;;13.10;99.90;;;;;;4989602;28;20125;-43
2022/07/08 03:25:49;;;;;;;3.40;0.75;;;13.10;99.90;;;;;;4989416;28;20045;-44
2022/07/08 03:28:15;;;;;;;4.93;1.00;;;13.10;99.90;;;;;;4982424;28;20035;-44
2022/07/08 03:30:40;;;;;;;6.28;1.20;;;13.10;99.90;;;;;;4985362;28;20176;-45
2022/07/08 03:33:07;;;;;;;4.47;0.80;;;13.00;99.90;;;;;;4983481;28;20038;-49
2022/07/08 03:35:32;;;;;;;3.28;0.70;;;13.00;99.90;;;;;;4987910;28;20039;-44
2022/07/08 03:37:58;;;;;;;4.70;0.70;;;13.00;99.90;;;;;;4982347;28;20137;-46
2022/07/08 03:43:08;;;;;;;3.92;0.60;;;13.00;99.90;;;;;;4979823;28;20070;-45
2022/07/08 03:45:33;;;;;;;5.40;0.70;;;13.00;99.90;;;;;;4980586;28;20500;-46
2022/07/08 03:48:00;;;;;;;6.47;0.90;;;13.00;99.90;;;;;;4988473;28;20035;-45
2022/07/08 03:50:26;;;;;;;5.25;0.90;;;13.00;99.90;;;;;;4987808;28;20043;-45
2022/07/08 03:52:53;;;;;;;4.93;0.88;;;13.10;99.90;;;;;;4983572;28;20038;-45
2022/07/08 03:55:21;;;;;;;4.47;0.70;;;13.00;99.90;;;;;;4989215;28;20042;-45
2022/07/08 03:57:47;;;;;;;4.60;1.10;;;13.00;99.90;;;;;;4990032;28;20050;-50
2022/07/08 04:00:14;;;;;;;3.92;0.70;;;13.00;99.90;;;;;;4983217;28;20044;-47
2022/07/08 04:02:39;;;;;;;6.65;0.70;;;13.00;99.90;;;;;;4983627;28;20038;-42
2022/07/08 04:05:05;;;;;;;5.00;0.60;;;13.10;99.90;;;;;;4988081;28;20409;-47
2022/07/08 04:07:32;;;;;;;4.05;0.68;;;13.10;99.90;;;;;;4983948;28;20057;-47
2022/07/08 04:09:58;;;;;;;5.05;0.82;;;13.10;99.90;;;;;;4989013;28;20068;-46
2022/07/08 04:12:24;;;;;;;3.20;0.70;;;13.10;99.90;;;;;;4984415;28;20038;-46
2022/07/08 04:14:49;;;;;;;4.97;0.80;;;13.10;99.90;;;;;;4985414;28;20031;-51
2022/07/08 04:17:15;;;;;;;3.17;0.93;;;13.20;99.90;;;;;;4987296;28;20060;-45
2022/07/08 04:19:41;;;;;;;3.83;0.70;;;13.20;99.90;;;;;;4985999;28;20057;-49
2022/07/08 04:22:06;;;;;;;6.32;0.90;;;13.20;99.90;;;;;;4983528;28;20054;-46
2022/07/08 04:24:32;;;;;;;7.13;1.05;;;13.30;99.90;;;;;;4986912;28;20046;-44
2022/07/08 04:26:57;;;;;;;3.35;0.85;;;13.30;99.90;;;;;;4978972;28;20058;-43
2022/07/08 04:29:23;;;;;;;4.32;0.82;;;13.30;99.90;;;;;;4988225;28;20692;-44
2022/07/08 04:31:49;;;;;;;3.53;0.73;;;13.40;99.90;;;;;;4985187;28;20097;-47
2022/07/08 04:34:15;;;;;;;5.75;0.70;;;13.50;99.90;;;;;;4986270;28;20772;-46
2022/07/08 04:36:40;;;;;;;8.27;0.77;;;13.50;99.90;;;;;;4986869;28;20565;-44
2022/07/08 04:39:06;;;;;;;5.60;1.05;;;13.60;99.90;;;;;;4982905;28;20038;-48
2022/07/08 04:41:31;;;;;;;6.72;1.10;;;13.70;99.90;;;;;;4985071;28;20038;-45
2022/07/08 04:43:57;;;;;;;5.63;1.13;;;13.80;99.90;;;;;;4984321;28;20451;-44
2022/07/08 04:46:23;;;;;;;2.92;0.63;;;13.80;99.90;;;;;;4986168;28;20144;-43
2022/07/08 04:48:48;;;;;;;2.65;0.68;;;13.90;99.90;;;;;;4985567;28;20137;-45
2022/07/08 04:51:14;;;;;;;3.00;0.63;;;14.00;99.90;;;;;;4979017;28;20034;-45
2022/07/08 04:53:40;;;;;;;7.07;1.52;;;14.10;99.90;;;;;;4984619;28;20050;-44
2022/07/08 04:56:06;;;;;;;4.25;0.75;;;14.20;99.90;;;;;;4985139;28;20337;-48
2022/07/08 04:58:31;;;;;;;5.30;0.82;;;14.30;99.90;;;;;;4985435;28;20053;-46
2022/07/08 05:00:58;;;;;;;4.95;0.80;;;14.30;99.90;;;;;;4983984;28;20088;-45
2022/07/08 05:03:23;;;;;;;4.68;0.80;;;14.50;99.90;;;;;;4984469;28;20578;-45
2022/07/08 05:05:49;;;;;;;5.13;0.90;;;14.50;99.90;;;;;;4985195;28;20077;-47
2022/07/08 05:08:15;;;;;;;7.93;1.10;;;14.60;99.90;;;;;;4989485;28;20093;-46
2022/07/08 05:10:40;;;;;;;5.47;1.00;;;14.60;99.90;;;;;;4983609;28;20097;-44
2022/07/08 05:13:07;;;;;;;4.68;0.65;;;14.70;99.90;;;;;;4984375;28;20045;-48
2022/07/08 05:15:33;;;;;;;9.07;1.30;;;14.80;99.90;;;;;;4983240;28;20665;-46
2022/07/08 05:17:59;;;;;;;2.70;0.60;;;14.90;99.90;;;;;;4985311;28;20062;-47
2022/07/08 05:20:25;;;;;;;6.47;0.88;;;14.90;99.90;;;;;;4985848;28;20049;-44
2022/07/08 05:22:51;;;;;;;5.03;0.90;;;15.00;99.90;;;;;;4984079;28;20045;-46
2022/07/08 05:25:16;;;;;;;4.07;0.65;;;15.00;99.90;;;;;;4987140;28;20034;-44
2022/07/08 05:27:42;;;;;;;5.65;0.70;;;15.10;99.90;;;;;;4984318;28;20097;-44
2022/07/08 05:30:10;;;;;;;5.07;0.80;;;15.10;99.90;;;;;;4985827;28;20034;-44
2022/07/08 05:32:36;;;;;;;7.90;1.00;;;15.10;99.90;;;;;;4983274;28;20034;-48
2022/07/08 05:35:04;;;;;;;4.75;0.70;;;15.20;99.90;;;;;;4982305;28;20113;-44
2022/07/08 05:37:30;;;;;;;8.23;1.00;;;15.20;99.90;;;;;;4983735;28;20050;-46
2022/07/08 05:39:56;;;;;;;2.97;0.60;;;15.20;99.90;;;;;;4982824;28;20046;-52
2022/07/08 05:42:22;;;;;;;5.07;0.85;;;15.20;99.90;;;;;;4979179;28;20496;-45
2022/07/08 05:44:47;;;;;;;7.55;1.13;;;15.30;99.90;;;;;;4986068;28;20035;-43
2022/07/08 05:47:13;;;;;;;3.55;0.60;;;15.30;99.90;;;;;;4983031;28;20145;-44
2022/07/08 05:49:40;;;;;;;8.75;1.02;;;15.30;99.90;;;;;;4984871;28;20454;-44
2022/07/08 05:52:06;;;;;;;9.35;0.98;;;15.40;99.90;;;;;;4982199;28;20093;-44
2022/07/08 05:54:32;;;;;;;5.53;0.73;;;15.50;99.90;;;;;;4981224;28;20046;-45
2022/07/08 05:56:59;;;;;;;7.07;0.80;;;15.50;99.90;;;;;;4980836;28;20514;-47
2022/07/08 05:59:25;;;;;;;4.90;0.70;;;15.60;99.90;;;;;;4984974;28;20043;-47
2022/07/08 06:01:51;;;;;;;7.47;0.77;;;15.60;99.90;;;;;;4980031;28;20072;-43
2022/07/08 06:04:17;;;;;;;9.93;0.80;;;15.70;99.90;;;;;;4986829;28;20484;-44
2022/07/08 06:06:43;;;;;;;7.93;0.80;;;15.80;99.90;;;;;;4982777;28;20042;-44
2022/07/08 06:09:08;;;;;;;7.07;0.70;;;15.80;99.90;;;;;;4986083;28;20041;-44
2022/07/08 06:11:34;;;;;;;4.97;0.95;;;15.90;99.90;;;;;;4987411;28;20042;-47
2022/07/08 06:14:00;;;;;;;3.75;0.88;;;16.00;99.90;;;;;;4986049;28;20097;-47
2022/07/08 06:16:25;;;;;;;7.45;1.02;;;16.10;99.90;;;;;;4986707;28;20150;-42
2022/07/08 06:18:51;;;;;;;11.32;1.13;;;16.30;99.90;;;;;;4984304;28;20499;-44
2022/07/08 06:21:18;;;;;;;4.03;0.60;;;16.40;99.90;;;;;;4986747;28;20039;-44
2022/07/08 06:23:43;;;;;;;6.38;0.95;;;16.50;99.90;;;;;;4988490;28;20467;-44
2022/07/08 06:26:10;;;;;;;4.03;0.70;;;16.50;99.90;;;;;;4988427;28;20046;-43
2022/07/08 06:28:36;;;;;;;5.10;0.70;;;16.60;99.90;;;;;;4985375;28;20046;-44
2022/07/08 06:31:02;;;;;;;6.97;0.65;;;16.70;99.90;;;;;;4987927;28;20061;-44
2022/07/08 06:33:28;;;;;;;8.07;1.08;;;16.70;99.90;;;;;;4983967;28;20124;-45
2022/07/08 06:35:53;;;;;;;4.30;0.70;;;16.70;99.90;;;;;;4988412;28;20112;-43
2022/07/08 06:38:19;;;;;;;5.18;0.77;;;16.70;99.90;;;;;;5001410;28;20084;-44
2022/07/08 06:40:45;;;;;;;5.30;0.93;;;16.70;99.90;;;;;;4989325;28;20446;-43
2022/07/08 06:43:10;;;;;;;6.28;1.10;;;16.70;99.90;;;;;;4981138;28;20050;-42
2022/07/08 06:45:36;;;;;;;9.48;0.80;;;16.80;99.90;;;;;;4987953;28;20088;-42
2022/07/08 06:48:02;;;;;;;9.02;1.35;;;16.80;99.90;;;;;;4984062;28;20049;-47
2022/07/08 06:50:29;;;;;;;8.10;0.75;;;16.90;99.90;;;;;;5000518;28;20113;-42
2022/07/08 06:52:55;;;;;;;8.40;1.13;;;16.90;99.90;;;;;;4980014;28;20041;-44
2022/07/08 06:55:21;;;;;;;9.45;0.98;;;16.90;99.90;;;;;;4983566;28;20034;-44
2022/07/08 06:57:47;;;;;;;4.75;0.68;;;17.00;99.90;;;;;;4985220;28;20511;-44
2022/07/08 07:00:13;;;;;;;9.80;1.10;;;17.00;99.90;;;;;;4982482;28;20126;-43
2022/07/08 07:02:39;;;;;;;9.00;1.15;;;17.10;99.90;;;;;;4986932;28;20042;-43
2022/07/08 07:05:05;;;;;;;6.32;0.95;;;17.10;99.90;;;;;;4988926;28;20053;-44
2022/07/08 07:07:31;;;;;;;5.97;1.25;;;17.20;99.90;;;;;;4987327;28;20474;-43
2022/07/08 07:09:57;;;;;;;5.03;0.95;;;17.20;99.90;;;;;;4989739;28;20042;-44
2022/07/08 07:12:22;;;;;;;6.90;1.05;;;17.30;99.90;;;;;;4989532;28;20388;-42
2022/07/08 07:14:48;;;;;;;6.55;1.00;;;17.30;99.90;;;;;;4988668;28;20359;-43
2022/07/08 07:17:20;;;;;;;4.95;1.02;;;17.30;99.90;;;;;;4987326;28;20116;-47
2022/07/08 07:19:48;;;;;;;6.55;0.93;;;17.30;99.90;;;;;;4991075;28;20050;-49
2022/07/08 07:22:15;;;;;;;7.57;0.77;;;17.30;99.90;;;;;;4988022;28;20169;-44
2022/07/08 07:24:41;;;;;;;6.57;0.85;;;17.40;99.90;;;;;;4981308;28;20039;-47
2022/07/08 07:27:07;;;;;;;6.35;0.68;;;17.50;99.90;;;;;;4983517;28;20046;-45
2022/07/08 07:29:32;;;;;;;4.47;0.90;;;17.50;99.90;;;;;;4985175;28;20034;-43
2022/07/08 07:31:59;;;;;;;3.42;0.95;;;17.60;99.90;;;;;;4991966;28;20077;-43
2022/07/08 07:34:24;;;;;;;7.43;1.00;;;17.60;99.90;;;;;;4985832;28;20053;-44
2022/07/08 07:36:50;;;;;;;5.70;0.90;;;17.70;99.90;;;;;;4984836;28;20043;-43
2022/07/08 07:39:16;;;;;;;4.97;0.75;;;17.70;99.90;;;;;;4986651;28;20045;-49
2022/07/08 07:41:41;;;;;;;3.47;0.80;;;17.80;99.90;;;;;;4986717;28;20117;-50
2022/07/08 07:44:07;;;;;;;6.45;1.00;;;17.80;99.90;;;;;;4983009;28;20050;-48
2022/07/08 07:46:33;;;;;;;4.45;0.70;;;17.90;99.90;;;;;;4983495;28;20042;-44
2022/07/08 07:48:59;;;;;;;9.75;1.45;;;18.00;99.90;;;;;;4985763;28;20045;-43
2022/07/08 07:51:25;;;;;;;5.97;1.00;;;18.10;99.90;;;;;;4989177;28;20065;-44
2022/07/08 07:53:51;;;;;;;4.80;0.88;;;18.10;99.90;;;;;;4987318;28;20826;-42
2022/07/08 07:56:16;;;;;;;7.88;0.90;;;18.20;99.90;;;;;;4983569;28;20053;-45
2022/07/08 07:58:42;;;;;;;4.60;0.70;;;18.20;99.90;;;;;;4985506;28;20058;-47
2022/07/08 08:01:08;;;;;;;7.03;1.38;;;18.30;99.90;;;;;;4981242;28;20065;-49
2022/07/08 08:03:34;;;;;;;5.97;1.52;;;18.30;99.90;;;;;;4989428;28;20184;-44
2022/07/08 08:06:00;;;;;;;9.18;0.80;;;18.30;99.90;;;;;;4986538;28;20048;-44
2022/07/08 08:08:26;;;;;;;6.32;0.75;;;18.30;99.90;;;;;;4989559;28;20073;-42
2022/07/08 08:10:53;;;;;;;4.70;0.85;;;18.30;99.90;;;;;;4988475;28;20079;-43
2022/07/08 08:13:19;;;;;;;7.28;0.80;;;18.40;99.90;;;;;;4991017;28;20046;-42
2022/07/08 08:15:45;;;;;;;7.07;0.93;;;18.30;99.90;;;;;;4984752;28;20034;-48
2022/07/08 08:18:11;;;;;;;3.92;1.15;;;18.30;99.90;;;;;;4988758;28;20204;-43
2022/07/08 08:20:37;;;;;;;5.93;0.65;;;18.30;99.90;;;;;;4989740;28;20555;-44
2022/07/08 08:23:04;;;;;;;5.32;0.50;;;18.40;99.90;;;;;;4987139;28;20169;-43
2022/07/08 08:25:30;;;;;;;4.00;0.80;;;18.50;99.90;;;;;;4984815;28;20554;-44
2022/07/08 08:27:56;;;;;;;5.20;1.17;;;18.60;99.90;;;;;;4977071;28;20049;-43
2022/07/08 08:30:23;;;;;;;6.18;0.70;;;18.80;99.90;;;;;;4981187;28;20772;-44
2022/07/08 08:32:49;;;;;;;6.35;0.90;;;18.90;99.90;;;;;;4981434;28;20121;-44
2022/07/08 08:35:15;;;;;;;5.57;0.80;;;18.90;99.90;;;;;;4983930;28;20109;-46
2022/07/08 08:37:40;;;;;;;3.58;0.80;;;19.10;99.90;;;;;;4987505;28;20053;-45
2022/07/08 08:40:09;;;;;;;4.35;0.60;;;19.20;99.90;;;;;;4987628;28;20487;-46
2022/07/08 08:42:35;;;;;;;3.38;0.70;;;19.30;99.90;;;;;;4976416;28;20072;-44
2022/07/08 08:45:03;;;;;;;4.10;0.70;;;19.30;99.90;;;;;;4986794;28;20050;-44
2022/07/08 08:47:30;;;;;;;7.57;0.98;;;19.40;99.90;;;;;;4986050;28;20407;-44
2022/07/08 08:50:53;;;;;;;4.95;0.70;;;19.50;99.90;;;;;;4979617;28;20073;-45
2022/07/08 08:52:49;;;;;;;5.90;0.75;;;19.50;99.90;;;;;;4982423;28;20065;-45
2022/07/08 08:55:31;;;;;;;6.05;0.80;;;19.50;99.90;;;;;;4985919;28;20054;-45
2022/07/08 08:58:02;;;;;;;5.68;0.93;;;19.50;99.90;;;;;;4984289;28;20046;-43
2022/07/08 09:00:30;;;;;;;4.88;0.65;;;19.50;99.90;;;;;;4982179;28;20504;-45
2022/07/08 09:02:56;;;;;;;5.57;0.75;;;19.60;99.90;;;;;;4980349;28;20042;-46
2022/07/08 09:05:23;;;;;;;4.43;0.52;;;19.70;99.90;;;;;;4986041;28;20464;-44
2022/07/08 09:07:49;;;;;;;6.57;0.95;;;19.80;99.90;;;;;;4982872;28;20046;-45
2022/07/08 09:10:16;;;;;;;4.50;0.80;;;19.90;99.70;;;;;;4980028;28;20092;-43
2022/07/08 09:13:12;;;;;;;2.95;0.70;;;20.00;99.70;;;;;;4979851;28;20129;-44
2022/07/08 09:15:42;;;;;;;4.20;0.80;;;20.10;99.20;;;;;;4984132;28;20103;-44
2022/07/08 09:18:10;;;;;;;6.22;1.10;;;20.20;98.90;;;;;;4982527;28;20535;-45
2022/07/08 09:20:49;;;;;;;7.75;1.10;;;20.20;98.80;;;;;;4978389;28;20042;-44
2022/07/08 09:23:23;;;;;;;4.72;0.90;;;20.30;98.60;;;;;;4982552;28;20606;-43
2022/07/08 09:25:51;;;;;;;4.45;1.10;;;20.30;98.30;;;;;;4981224;28;20441;-42
2022/07/08 09:28:38;;;;;;;4.60;1.02;;;20.50;98.40;;;;;;4976793;28;20546;-44
2022/07/08 09:31:15;;;;;;;3.35;0.77;;;20.50;98.00;;;;;;4980106;28;20031;-44
2022/07/08 09:33:42;;;;;;;5.93;0.77;;;20.60;97.90;;;;;;4980856;28;20038;-42
2022/07/08 09:36:09;;;;;;;6.50;0.88;;;20.60;97.60;;;;;;4976912;28;20031;-43
2022/07/08 09:38:37;;;;;;;3.35;0.90;;;20.70;97.90;;;;;;4983314;28;20353;-48
2022/07/08 09:41:15;;;;;;;4.00;0.93;;;20.70;97.20;;;;;;4983874;28;20082;-45
2022/07/08 09:43:49;;;;;;;4.43;0.90;;;20.80;97.10;;;;;;4977689;28;20051;-45
2022/07/08 09:46:15;;;;;;;5.93;1.70;;;20.80;97.30;;;;;;4982642;28;20060;-45
2022/07/08 09:48:41;;;;;;;7.90;1.20;;;20.80;96.90;;;;;;4985841;28;20463;-45
2022/07/08 09:51:09;;;;;;;8.25;1.10;;;20.80;96.70;;;;;;4981721;28;20038;-45
2022/07/08 09:53:40;;;;;;;5.93;1.45;;;20.80;97.00;;;;;;4980589;28;20149;-44
2022/07/08 09:56:06;;;;;;;6.28;0.93;;;21.00;96.60;;;;;;4984993;28;20042;-45
2022/07/08 09:58:34;;;;;;;6.15;1.15;;;21.00;96.20;;;;;;4980655;28;20053;-43
2022/07/08 10:01:00;;;;;;;3.65;0.70;;;21.10;96.10;;;;;;4979620;28;20129;-44
2022/07/08 10:03:26;;;;;;;5.65;0.80;;;21.20;95.90;;;;;;4978006;28;20105;-43
2022/07/08 10:05:52;;;;;;;8.80;1.08;;;21.30;95.60;;;;;;4976843;28;20559;-43
2022/07/08 10:08:18;;;;;;;6.95;0.93;;;21.30;94.50;;;;;;4985495;28;20049;-43
2022/07/08 10:10:48;;;;;;;4.40;1.23;;;21.30;94.30;;;;;;4987375;28;20056;-44
2022/07/08 10:13:15;;;;;;;6.43;1.30;;;21.30;94.20;;;;;;4982522;28;20069;-42
2022/07/08 10:15:43;;;;;;;5.32;1.33;;;21.20;94.40;;;;;;4982095;28;20094;-45
2022/07/08 10:18:17;;;;;;;5.13;1.13;;;21.20;94.40;;;;;;4984743;28;20042;-43
2022/07/08 10:20:47;;;;;;;3.72;0.95;;;21.10;94.30;;;;;;4980777;28;20503;-43
2022/07/08 10:23:27;;;;;;;4.05;0.93;;;21.10;94.30;;;;;;4980692;28;20042;-43
2022/07/08 10:25:56;;;;;;;4.85;0.82;;;21.10;93.70;;;;;;4983150;28;20046;-41
2022/07/08 10:28:37;;;;;;;4.93;0.90;;;21.10;93.70;;;;;;4984231;28;20105;-43
2022/07/08 10:31:16;;;;;;;5.88;1.02;;;21.20;93.50;;;;;;4985450;28;20034;-42
2022/07/08 10:33:45;;;;;;;3.20;0.80;;;21.30;93.70;;;;;;4987848;28;20041;-42
2022/07/08 10:36:11;;;;;;;4.63;1.40;;;21.40;93.20;;;;;;4978502;28;20170;-43
2022/07/08 10:38:41;;;;;;;5.15;0.75;;;21.50;93.40;;;;;;4988243;28;20123;-42
2022/07/08 10:41:08;;;;;;;7.50;0.98;;;21.60;92.70;;;;;;4989159;28;20035;-43
2022/07/08 10:43:34;;;;;;;3.67;0.98;;;21.70;92.60;;;;;;4986223;28;20054;-43
2022/07/08 10:46:17;;;;;;;4.90;0.85;;;21.80;92.40;;;;;;4978646;28;20076;-42
2022/07/08 10:48:53;;;;;;;5.43;1.25;;;21.80;91.30;;;;;;4985575;28;20559;-42
2022/07/08 10:51:18;;;;;;;5.15;1.13;;;21.70;91.70;;;;;;4980605;28;20035;-42
2022/07/08 10:54:01;;;;;;;4.22;0.88;;;21.90;90.80;;;;;;4980952;28;20053;-42
2022/07/08 10:56:59;;;;;;;3.25;0.90;;;22.00;90.00;;;;;;4987508;28;20038;-43
2022/07/08 10:59:29;;;;;;;3.80;1.13;;;22.20;90.70;;;;;;4987834;28;20376;-43
2022/07/08 11:01:59;;;;;;;5.13;0.90;;;22.20;90.30;;;;;;4986711;28;20542;-42
2022/07/08 11:04:33;;;;;;;6.18;1.23;;;22.20;90.30;;;;;;4987577;28;20062;-41
2022/07/08 11:07:29;;;;;;;4.65;1.10;;;22.10;89.60;;;;;;4989915;28;20416;-42
2022/07/08 11:09:57;;;;;;;4.97;0.98;;;22.00;89.40;;;;;;4974107;28;20462;-44
2022/07/08 11:12:25;;;;;;;4.40;1.42;;;22.00;90.50;;;;;;4989176;28;20100;-42
2022/07/08 11:14:56;;;;;;;5.22;1.42;;;21.90;90.40;;;;;;4987352;28;20147;-42
2022/07/08 11:17:33;;;;;;;8.68;1.35;;;21.90;91.00;;;;;;4983863;28;20048;-38
2022/07/08 11:20:01;;;;;;;5.05;1.63;;;22.10;91.30;;;;;;4988541;28;20054;-42
2022/07/08 11:22:31;;;;;;;4.22;1.17;;;22.20;90.60;;;;;;4983592;28;20053;-42
2022/07/08 11:24:58;;;;;;;5.70;0.98;;;22.30;90.20;;;;;;4985924;28;20034;-44
2022/07/08 11:27:26;;;;;;;4.05;1.08;;;22.50;90.00;;;;;;4986430;28;20136;-48
2022/07/08 11:29:54;;;;;;;4.88;1.05;;;22.60;89.40;;;;;;4981257;28;20122;-42
2022/07/08 11:32:21;;;;;;;6.15;1.30;;;22.70;89.40;;;;;;4985835;28;20046;-42
2022/07/08 11:34:47;;;;;;;5.18;0.93;;;22.70;89.30;;;;;;4987048;28;20073;-43
2022/07/08 11:37:13;;;;;;;6.32;0.90;;;22.70;88.60;;;;;;4989514;28;20042;-41
2022/07/08 11:39:40;;;;;;;6.45;0.98;;;22.70;88.60;;;;;;4988962;28;20141;-43
2022/07/08 11:42:08;;;;;;;2.40;0.80;;;22.60;88.40;;;;;;4985366;28;20081;-43
2022/07/08 11:44:33;;;;;;;5.88;1.00;;;22.50;88.40;;;;;;4983590;28;20045;-40
2022/07/08 11:46:59;;;;;;;3.72;1.15;;;22.40;87.40;;;;;;4983088;28;20054;-44
2022/07/08 11:49:25;;;;;;;3.72;1.08;;;22.40;87.80;;;;;;4983767;28;20126;-47
2022/07/08 11:51:55;;;;;;;6.88;1.38;;;22.40;88.50;;;;;;4983861;28;20408;-49
2022/07/08 11:54:28;;;;;;;5.45;1.10;;;22.50;88.50;;;;;;4987160;28;20173;-41
2022/07/08 11:56:59;;;;;;;5.05;0.90;;;22.80;88.10;;;;;;4984521;28;20042;-41
2022/07/08 11:59:26;;;;;;;5.28;0.90;;;22.90;87.40;;;;;;5001828;28;20101;-46
2022/07/08 12:01:53;;;;;;;3.65;0.98;;;23.10;86.70;;;;;;4986902;28;20087;-46
2022/07/08 12:04:19;;;;;;;3.20;0.77;;;23.20;86.40;;;;;;4988855;28;20062;-46
2022/07/08 12:06:47;;;;;;;6.03;1.20;;;23.40;85.50;;;;;;4987212;28;20118;-44
2022/07/08 12:09:14;;;;;;;3.92;0.80;;;23.50;85.00;;;;;;4990144;28;20511;-44
2022/07/08 12:11:44;;;;;;;4.57;0.70;;;23.60;83.60;;;;;;4982222;28;20117;-43
2022/07/08 12:14:11;;;;;;;3.78;1.13;;;23.70;82.40;;;;;;4987843;28;20038;-40
2022/07/08 12:16:48;;;;;;;3.60;0.80;;;23.70;81.50;;;;;;4990343;28;20108;-45
2022/07/08 12:19:36;;;;;;;4.45;1.35;;;23.80;78.90;;;;;;4988981;28;20045;-43
2022/07/08 12:22:07;;;;;;;3.38;0.95;;;24.00;81.50;;;;;;4985190;28;20156;-43
2022/07/08 12:24:38;;;;;;;2.63;1.00;;;24.10;79.70;;;;;;4986900;28;20173;-41
2022/07/08 12:27:16;;;;;;;4.50;1.10;;;24.20;78.50;;;;;;4986520;28;20423;-41
2022/07/08 12:29:42;;;;;;;5.80;0.88;;;24.40;76.40;;;;;;4988523;28;20076;-42
2022/07/08 12:32:09;;;;;;;5.22;1.00;;;24.40;75.60;;;;;;4985888;28;20391;-42
2022/07/08 12:34:35;;;;;;;3.90;0.80;;;24.30;76.00;;;;;;4990308;28;20043;-41
2022/07/08 12:37:19;;;;;;;4.55;0.90;;;24.20;77.20;;;;;;4983806;28;20498;-41
2022/07/08 12:39:45;;;;;;;2.15;0.70;;;24.20;76.10;;;;;;4985735;28;20069;-43
2022/07/08 12:42:11;;;;;;;4.65;1.05;;;24.10;76.00;;;;;;4983774;28;20055;-41
2022/07/08 12:44:41;;;;;;;2.83;0.63;;;24.00;76.60;;;;;;4984931;28;20093;-40
2022/07/08 12:47:12;;;;;;;4.22;0.90;;;24.00;76.30;;;;;;4982379;28;20121;-41
2022/07/08 12:49:40;;;;;;;3.30;0.95;;;24.10;76.90;;;;;;4985941;28;20046;-41